Time;durP1;ratioP1;P1;durP2;ratioP2;P2;SDS_P1;SDS_P2;PMS_P1;PMS_P2;Temp;Humidity;BMP_temperature;BMP_pressure;BME280_temperature;BME280_humidity;BME280_pressure;Samples;Min_cycle;Max_cycle;Signal;HPM_P1;HPM_P2
2023/05/11 00:02:00;;;;;;;3.47;1.45;;;22.20;73.60;;;;;;10439595;28;20124;-23
2023/05/11 00:07:01;;;;;;;1.83;1.35;;;22.10;73.70;;;;;;10451059;28;20071;-23
2023/05/11 00:12:03;;;;;;;2.50;1.45;;;22.10;73.80;;;;;;10449781;28;20132;-22
2023/05/11 00:17:07;;;;;;;;;;;22.10;73.80;;;;;;10447271;28;20103;-23
2023/05/11 00:22:09;;;;;;;;;;;22.10;73.90;;;;;;10450818;28;20055;-23
2023/05/11 00:27:10;;;;;;;;;;;22.10;74.10;;;;;;10443395;28;19921;-24
2023/05/11 00:32:13;;;;;;;;;;;22.00;74.00;;;;;;10447649;28;19921;-23
2023/05/11 00:37:15;;;;;;;;;;;22.00;74.00;;;;;;10445606;28;20007;-23
2023/05/11 00:42:17;;;;;;;;;;;22.00;73.90;;;;;;10432916;28;20008;-23
2023/05/11 00:47:20;;;;;;;;;;;22.00;74.10;;;;;;10444970;28;19982;-24
2023/05/11 00:52:22;;;;;;;;;;;22.00;74.10;;;;;;10441914;28;19971;-22
2023/05/11 00:57:24;;;;;;;;;;;22.00;74.00;;;;;;10448585;28;19964;-22
2023/05/11 01:02:27;;;;;;;;;;;22.00;74.30;;;;;;10449103;28;19966;-23
2023/05/11 01:07:33;;;;;;;;;;;21.90;74.20;;;;;;10438273;28;19929;-23
2023/05/11 01:12:37;;;;;;;;;;;21.90;74.10;;;;;;10441873;28;19925;-23
2023/05/11 01:17:44;;;;;;;;;;;21.90;74.30;;;;;;10419815;28;19935;-23
2023/05/11 01:22:52;;;;;;;;;;;21.90;74.40;;;;;;10440416;28;19921;-23
2023/05/11 01:28:07;;;;;;;;;;;21.90;74.50;;;;;;10446517;28;20043;-23
2023/05/11 01:33:11;;;;;;;;;;;21.90;74.50;;;;;;10442338;28;19929;-24
2023/05/11 01:38:14;;;;;;;;;;;21.80;74.40;;;;;;10442970;28;20099;-23
2023/05/11 01:43:18;;;;;;;;;;;21.80;74.50;;;;;;10444493;28;19921;-23
2023/05/11 01:48:23;;;;;;;;;;;21.80;74.40;;;;;;10442243;28;19928;-23
2023/05/11 01:53:26;;;;;;;;;;;21.80;74.60;;;;;;10446853;28;19975;-23
2023/05/11 01:58:28;;;;;;;;;;;21.80;75.10;;;;;;10437265;28;20329;-24
2023/05/11 02:03:31;;;;;;;;;;;21.80;74.60;;;;;;10444775;28;19924;-24
2023/05/11 02:08:33;;;;;;;;;;;21.80;74.60;;;;;;10452461;28;20006;-24
2023/05/11 02:13:36;;;;;;;;;;;21.80;74.80;;;;;;10448242;28;19921;-23
2023/05/11 02:18:40;;;;;;;;;;;21.70;74.70;;;;;;10447108;28;20019;-22
2023/05/11 02:23:43;;;;;;;;;;;21.70;74.80;;;;;;10455446;28;19921;-24
2023/05/11 02:28:44;;;;;;;;;;;21.70;74.80;;;;;;10426758;28;20237;-24
2023/05/11 02:33:50;;;;;;;;;;;21.70;74.80;;;;;;10433473;28;19960;-23
2023/05/11 02:38:54;;;;;;;;;;;21.70;74.80;;;;;;10443987;28;20008;-24
2023/05/11 02:43:58;;;;;;;;;;;21.70;74.80;;;;;;10443408;28;19967;-24
2023/05/11 02:49:03;;;;;;;;;;;21.70;74.90;;;;;;10445347;28;20320;-24
2023/05/11 02:54:06;;;;;;;;;;;21.70;74.90;;;;;;10448936;28;19955;-24
2023/05/11 02:59:08;;;;;;;;;;;21.60;75.00;;;;;;10451093;28;19925;-24
2023/05/11 03:04:11;;;;;;;;;;;21.60;75.10;;;;;;10435273;28;19931;-24
2023/05/11 03:09:12;;;;;;;;;;;21.60;74.80;;;;;;10439225;28;19986;-23
2023/05/11 03:14:14;;;;;;;;;;;21.60;74.90;;;;;;10441970;28;19921;-24
2023/05/11 03:19:18;;;;;;;;;;;21.60;75.00;;;;;;10445643;28;19920;-24
2023/05/11 03:24:19;;;;;;;;;;;21.60;74.90;;;;;;10443910;28;19964;-23
2023/05/11 03:29:22;;;;;;;;;;;21.60;75.00;;;;;;10448497;28;20579;-23
2023/05/11 03:34:25;;;;;;;;;;;21.60;74.90;;;;;;10447205;28;19986;-23
2023/05/11 03:39:28;;;;;;;;;;;21.60;74.90;;;;;;10447699;28;20403;-23
2023/05/11 03:44:31;;;;;;;;;;;21.50;74.90;;;;;;10443451;28;20626;-23
2023/05/11 03:49:36;;;;;;;;;;;21.50;75.20;;;;;;10445502;28;21015;-23
2023/05/11 03:54:37;;;;;;;;;;;21.50;75.10;;;;;;10443294;28;19936;-22
2023/05/11 03:59:39;;;;;;;;;;;21.50;75.00;;;;;;10446479;28;19967;-24
2023/05/11 04:04:42;;;;;;;;;;;21.50;74.90;;;;;;10442478;28;19921;-24
2023/05/11 04:09:44;;;;;;;;;;;21.50;75.10;;;;;;10448797;28;19921;-23
2023/05/11 04:14:46;;;;;;;;;;;21.50;75.10;;;;;;10448879;28;19921;-21
2023/05/11 04:19:50;;;;;;;;;;;21.50;75.00;;;;;;10447839;28;20316;-23
2023/05/11 04:24:51;;;;;;;;;;;21.50;75.20;;;;;;10448759;28;20647;-22
2023/05/11 04:29:53;;;;;;;;;;;21.40;75.10;;;;;;10447938;28;19955;-23
2023/05/11 04:34:56;;;;;;;;;;;21.50;75.00;;;;;;10439781;28;19921;-23
2023/05/11 04:39:58;;;;;;;;;;;21.50;75.20;;;;;;10442273;28;19960;-23
2023/05/11 04:45:00;;;;;;;;;;;21.50;75.30;;;;;;10424821;28;20182;-23
2023/05/11 04:50:03;;;;;;;;;;;21.50;75.00;;;;;;10446165;28;19925;-28
2023/05/11 04:55:05;;;;;;;;;;;21.50;75.20;;;;;;10449599;28;19920;-25
2023/05/11 05:00:08;;;;;;;;;;;21.50;75.30;;;;;;10446272;28;19964;-22
2023/05/11 05:05:11;;;;;;;;;;;21.40;75.40;;;;;;10451381;28;19925;-23
2023/05/11 05:10:13;;;;;;;;;;;21.40;75.50;;;;;;10442235;28;19998;-23
2023/05/11 05:15:14;;;;;;;;;;;21.40;75.50;;;;;;10433311;28;19995;-23
2023/05/11 05:20:17;;;;;;;;;;;21.40;75.30;;;;;;10429624;28;20368;-23
2023/05/11 05:25:20;;;;;;;;;;;21.40;75.80;;;;;;10445053;28;20340;-23
2023/05/11 05:30:22;;;;;;;;;;;21.40;75.80;;;;;;10432147;28;19983;-23
2023/05/11 05:35:25;;;;;;;;;;;21.40;75.70;;;;;;10454644;28;20015;-23
2023/05/11 05:40:27;;;;;;;;;;;21.40;75.80;;;;;;10437028;28;20306;-23
2023/05/11 05:45:29;;;;;;;;;;;21.40;75.50;;;;;;10433992;28;19925;-23
2023/05/11 05:50:32;;;;;;;;;;;21.40;75.70;;;;;;10439027;28;20355;-23
2023/05/11 05:55:34;;;;;;;;;;;21.40;75.40;;;;;;10440855;28;20023;-23
2023/05/11 06:00:36;;;;;;;;;;;21.40;75.50;;;;;;10439906;28;20003;-24
2023/05/11 06:05:39;;;;;;;;;;;21.40;75.50;;;;;;10441387;28;19927;-23
2023/05/11 06:10:40;;;;;;;;;;;21.40;75.40;;;;;;10447287;28;20020;-23
2023/05/11 06:15:42;;;;;;;;;;;21.40;75.40;;;;;;10451794;28;19921;-22
2023/05/11 06:20:45;;;;;;;;;;;21.40;75.50;;;;;;10454201;28;20023;-22
2023/05/11 06:25:47;;;;;;;;;;;21.40;75.30;;;;;;10448435;28;20007;-23
2023/05/11 06:30:48;;;;;;;;;;;21.40;75.30;;;;;;10442816;28;19967;-22
2023/05/11 06:35:51;;;;;;;;;;;21.40;75.20;;;;;;10447591;28;19956;-22
2023/05/11 06:40:53;;;;;;;;;;;21.40;75.20;;;;;;10452973;28;19924;-22
2023/05/11 06:45:55;;;;;;;;;;;21.40;75.10;;;;;;10442263;28;19925;-22
2023/05/11 06:50:58;;;;;;;;;;;21.40;75.20;;;;;;10443531;28;20020;-22
2023/05/11 06:56:00;;;;;;;;;;;21.40;75.30;;;;;;10445582;28;20011;-23
2023/05/11 07:01:04;;;;;;;;;;;21.40;75.30;;;;;;10448772;28;19960;-21
2023/05/11 07:06:07;;;;;;;;;;;21.50;75.60;;;;;;10451371;28;19920;-24
2023/05/11 07:11:09;;;;;;;;;;;21.50;76.30;;;;;;10448666;28;19931;-23
2023/05/11 07:16:11;;;;;;;;;;;21.50;76.90;;;;;;10451129;28;19929;-23
2023/05/11 07:21:14;;;;;;;;;;;21.50;76.90;;;;;;10442973;28;19925;-23
2023/05/11 07:26:16;;;;;;;;;;;21.60;76.70;;;;;;10450267;28;19956;-23
2023/05/11 07:31:18;;;;;;;;;;;21.50;77.30;;;;;;10451873;28;19972;-24
2023/05/11 07:36:21;;;;;;;;;;;21.50;77.30;;;;;;10449546;28;20360;-24
2023/05/11 07:41:25;;;;;;;;;;;21.60;77.00;;;;;;10450542;28;19951;-24
2023/05/11 07:46:27;;;;;;;;;;;21.60;76.90;;;;;;10452065;28;19986;-24
2023/05/11 07:51:30;;;;;;;;;;;21.60;76.40;;;;;;10449566;28;19920;-24
2023/05/11 07:56:32;;;;;;;;;;;21.70;76.10;;;;;;10435686;28;19924;-24
2023/05/11 08:01:34;;;;;;;;;;;21.70;76.40;;;;;;10444800;28;19925;-26
2023/05/11 08:06:38;;;;;;;;;;;22.10;79.00;;;;;;10446742;28;19927;-23
2023/05/11 08:11:39;;;;;;;;;;;22.30;78.80;;;;;;10435060;28;19929;-23
2023/05/11 08:16:41;;;;;;;;;;;22.10;75.50;;;;;;10449582;28;19935;-23
2023/05/11 08:21:45;;;;;;;;;;;22.00;75.60;;;;;;10447710;28;19924;-23
2023/05/11 08:26:47;;;;;;;;;;;22.00;75.70;;;;;;10449262;28;19928;-23
2023/05/11 08:31:49;;;;;;;;;;;22.10;75.60;;;;;;10431873;28;20427;-23
2023/05/11 08:36:54;;;;;;;;;;;22.10;75.50;;;;;;10442896;28;20154;-23
2023/05/11 08:41:56;;;;;;;;;;;22.20;75.10;;;;;;10438464;28;19925;-21
2023/05/11 08:46:59;;;;;;;;;;;22.20;75.10;;;;;;10447431;28;19932;-23
2023/05/11 08:52:04;;;;;;;;;;;22.20;74.90;;;;;;10447202;28;19964;-23
2023/05/11 08:57:06;;;;;;;;;;;22.20;74.40;;;;;;10430288;28;19921;-23
2023/05/11 09:02:10;;;;;;;;;;;22.30;74.40;;;;;;10448349;28;19920;-23
2023/05/11 09:07:14;;;;;;;;;;;22.30;73.90;;;;;;10451319;28;20023;-23
2023/05/11 09:12:16;;;;;;;;;;;21.70;77.70;;;;;;10448385;28;19928;-23
2023/05/11 09:17:18;;;;;;;;;;;21.70;78.20;;;;;;10432655;28;20297;-23
2023/05/11 09:22:21;;;;;;;;;;;22.00;76.30;;;;;;10436535;28;20342;-24
2023/05/11 09:27:24;;;;;;;;;;;21.30;82.10;;;;;;10437258;28;20023;-23
2023/05/11 09:32:26;;;;;;;;;;;21.70;73.20;;;;;;10442923;28;20280;-23
2023/05/11 09:37:29;;;;;;;;;;;22.10;75.50;;;;;;10439797;28;19924;-23
2023/05/11 09:42:30;;;;;;;;;;;22.30;74.40;;;;;;10444362;28;20368;-23
2023/05/11 09:47:38;;;;;;;;;;;21.80;77.60;;;;;;10444211;28;20548;-23
2023/05/11 09:52:49;;;;;;;;;;;21.30;77.30;;;;;;10446681;28;19920;-22
2023/05/11 09:57:53;;;;;;;;;;;21.90;78.20;;;;;;10448048;28;19925;-23
2023/05/11 10:03:04;;;;;;;;;;;20.60;86.80;;;;;;10453506;28;19921;-23
2023/05/11 10:08:07;;;;;;;;;;;21.00;85.20;;;;;;10445832;28;20368;-23
2023/05/11 10:13:09;;;;;;;;;;;21.30;81.30;;;;;;10448822;28;19967;-23
2023/05/11 10:18:11;;;;;;;;;;;21.80;78.10;;;;;;10449717;28;19927;-23
2023/05/11 10:23:14;;;;;;;;;;;21.40;82.00;;;;;;10439086;28;19968;-25
2023/05/11 10:28:16;;;;;;;;;;;20.30;85.50;;;;;;10443515;28;19943;-22
2023/05/11 10:33:17;;;;;;;;;;;21.50;81.80;;;;;;10438687;28;19920;-22
2023/05/11 10:38:21;;;;;;;;;;;21.20;78.10;;;;;;10449308;28;20590;-23
2023/05/11 10:43:32;;;;;;;;;;;21.50;81.60;;;;;;10449660;28;20483;-23
2023/05/11 10:48:55;;;;;;;;;;;21.00;83.40;;;;;;10445663;28;20346;-22
2023/05/11 10:54:06;;;;;;;;;;;21.80;78.50;;;;;;10452443;28;20008;-23
2023/05/11 10:59:16;;;;;;;;;;;21.10;83.60;;;;;;10447763;28;19928;-23
2023/05/11 11:04:19;;;;;;;;;;;21.50;81.10;;;;;;10452970;28;19960;-23
2023/05/11 11:09:22;;;;;;;;;;;20.20;89.20;;;;;;10451755;28;19920;-24
2023/05/11 11:14:25;;;;;;;;;;;19.60;90.10;;;;;;10452077;28;20003;-22
2023/05/11 11:19:36;;;;;;;;;;;19.40;92.80;;;;;;10452390;28;19920;-22
2023/05/11 11:24:46;;;;;;;;;;;20.70;87.20;;;;;;10443640;28;19928;-25
2023/05/11 11:30:02;;;;;;;;;;;20.90;86.10;;;;;;10451906;28;19968;-24
2023/05/11 11:35:06;;;;;;;;;;;20.80;86.30;;;;;;10448449;28;19967;-24
2023/05/11 11:40:10;;;;;;;;;;;21.60;80.30;;;;;;10451889;28;19931;-24
2023/05/11 11:45:29;;;;;;;;;;;22.00;76.00;;;;;;10451431;28;20039;-24
2023/05/11 11:50:30;;;;;;;;;;;22.00;75.50;;;;;;10451757;28;19925;-23
2023/05/11 11:55:46;;;;;;;;;;;22.30;72.70;;;;;;10440884;28;19929;-25
2023/05/11 12:00:48;;;;;;;;;;;22.40;72.40;;;;;;10433940;28;19940;-24
2023/05/11 12:05:52;;;;;;;;;;;22.50;71.40;;;;;;10444480;28;20019;-23
2023/05/11 12:10:55;;;;;;;;;;;22.30;72.10;;;;;;10442994;28;19925;-24
2023/05/11 12:16:12;;;;;;;;;;;22.30;72.30;;;;;;10434394;28;19932;-24
2023/05/11 12:21:18;;;;;;;;;;;22.40;70.80;;;;;;10442497;28;20015;-24
2023/05/11 12:26:22;;;;;;;;;;;22.50;72.30;;;;;;10446956;28;20055;-24
2023/05/11 12:31:25;;;;;;;;;;;22.10;65.80;;;;;;10441377;28;19929;-23
2023/05/11 12:36:27;;;;;;;;;;;21.80;76.60;;;;;;10449465;28;19920;-24
2023/05/11 12:41:30;;;;;;;;;;;22.50;71.70;;;;;;10449176;28;19931;-25
2023/05/11 12:46:33;;;;;;;;;;;22.70;70.20;;;;;;10447861;28;19927;-23
2023/05/11 12:51:45;;;;;;;;;;;22.80;68.90;;;;;;10447015;28;20436;-24
2023/05/11 12:56:48;;;;;;;;;;;22.80;68.80;;;;;;10437041;28;19970;-23
2023/05/11 13:01:50;;;;;;;;;;;22.80;69.30;;;;;;10442252;28;19982;-24
2023/05/11 13:06:51;;;;;;;;;;;23.00;68.20;;;;;;10454705;28;19990;-23
2023/05/11 13:12:07;;;;;;;;;;;22.90;68.60;;;;;;10443986;28;20007;-22
2023/05/11 13:17:09;;;;;;;;;;;22.90;69.20;;;;;;10447372;28;19921;-23
2023/05/11 13:22:11;;;;;;;;;;;23.10;68.30;;;;;;10444217;28;19964;-23
2023/05/11 13:27:14;;;;;;;;;;;22.90;68.90;;;;;;10449595;28;20027;-23
2023/05/11 13:32:17;;;;;;;;;;;23.20;68.10;;;;;;10434594;28;19931;-23
2023/05/11 13:37:18;;;;;;;;;;;23.20;67.50;;;;;;10446589;28;19951;-23
2023/05/11 13:42:21;;;;;;;;;;;23.10;68.00;;;;;;10428927;28;19971;-27
2023/05/11 13:47:23;;;;;;;;;;;23.10;67.10;;;;;;10438066;28;20383;-24
2023/05/11 13:52:25;;;;;;;;;;;23.20;67.30;;;;;;10435374;28;19920;-23
2023/05/11 13:57:28;;;;;;;;;;;23.40;66.90;;;;;;10437599;28;19921;-23
2023/05/11 14:02:30;;;;;;;;;;;23.40;66.60;;;;;;10435500;28;20234;-22
2023/05/11 14:07:31;;;;;;;;;;;23.50;66.30;;;;;;10437473;28;20003;-25
2023/05/11 14:12:35;;;;;;;;;;;23.50;66.40;;;;;;10446628;28;20007;-24
2023/05/11 14:17:36;;;;;;;;;;;23.60;66.10;;;;;;10439973;28;19971;-25
2023/05/11 14:22:38;;;;;;;;;;;23.70;66.10;;;;;;10437158;28;19935;-23
2023/05/11 14:27:42;;;;;;;;;;;23.80;65.90;;;;;;10444303;28;20357;-24
2023/05/11 14:32:44;;;;;;;;;;;23.70;66.10;;;;;;10450207;28;20361;-24
2023/05/11 14:37:46;;;;;;;;;;;23.80;65.90;;;;;;10454202;28;19927;-24
2023/05/11 14:42:49;;;;;;;;;;;23.90;65.80;;;;;;10449548;28;19921;-23
2023/05/11 15:48:42;;;;;;;;;;;25.00;62.40;;;;;;10416280;28;20027;-24
2023/05/11 15:53:44;;;;;;;;;;;25.00;61.20;;;;;;10442699;28;19963;-22
2023/05/11 15:58:46;;;;;;;;;;;25.10;61.20;;;;;;10445827;28;19920;-24
2023/05/11 16:03:49;;;;;;;;;;;25.10;61.10;;;;;;10449951;28;19924;-24
2023/05/11 16:08:52;;;;;;;;;;;25.20;61.10;;;;;;10449603;28;20011;-24
2023/05/11 16:13:53;;;;;;;;;;;25.20;60.70;;;;;;10442890;28;19921;-25
2023/05/11 16:18:57;;;;;;;;;;;25.30;62.10;;;;;;10449378;28;19928;-24
2023/05/11 16:23:59;;;;;;;;;;;25.30;60.60;;;;;;10445439;28;20058;-25
2023/05/11 16:29:01;;;;;;;;;;;25.20;59.80;;;;;;10445218;28;20280;-24
2023/05/11 16:34:04;;;;;;;;;;;25.40;61.80;;;;;;10445305;28;20035;-25
2023/05/11 16:39:06;;;;;;;;;;;25.10;63.70;;;;;;10442438;28;20014;-25
2023/05/11 16:44:07;;;;;;;;;;;25.30;62.20;;;;;;10452809;28;20274;-24
2023/05/11 16:49:10;;;;;;;;;;;25.40;63.00;;;;;;10431621;28;19954;-25
2023/05/11 16:54:12;;;;;;;;;;;25.30;61.30;;;;;;10437721;28;19952;-25
2023/05/11 16:59:14;;;;;;;;;;;25.30;61.60;;;;;;10444307;28;19929;-24
2023/05/11 17:04:17;;;;;;;;;;;25.40;64.90;;;;;;10438720;28;19927;-24
2023/05/11 17:09:19;;;;;;;;;;;25.40;62.90;;;;;;10442747;28;19921;-25
2023/05/11 17:14:20;;;;;;;;;;;25.20;66.40;;;;;;10456529;28;19920;-24
2023/05/11 17:19:23;;;;;;;;;;;25.40;63.90;;;;;;10429177;28;19921;-25
2023/05/11 17:24:25;;;;;;;;;;;25.10;63.20;;;;;;10440132;28;19974;-24
2023/05/11 17:29:27;;;;;;;;;;;25.20;64.40;;;;;;10443909;28;19920;-24
2023/05/11 17:34:30;;;;;;;;;;;25.30;64.40;;;;;;10439213;28;19960;-23
2023/05/11 17:39:32;;;;;;;;;;;25.40;64.40;;;;;;10432698;28;19956;-25
2023/05/11 17:44:34;;;;;;;;;;;25.00;65.70;;;;;;10443502;28;20012;-24
2023/05/11 17:49:37;;;;;;;;;;;25.30;66.30;;;;;;10448600;28;20023;-23
2023/05/11 17:54:39;;;;;;;;;;;25.00;66.00;;;;;;10441305;28;19921;-25
2023/05/11 17:59:41;;;;;;;;;;;25.20;65.30;;;;;;10446264;28;20003;-24
2023/05/11 18:04:44;;;;;;;;;;;25.20;65.50;;;;;;10447156;28;19921;-24
2023/05/11 18:09:45;;;;;;;;;;;25.00;65.70;;;;;;10454447;28;19924;-24
2023/05/11 18:14:47;;;;;;;;;;;25.10;65.30;;;;;;10449150;28;19975;-24
2023/05/11 18:19:50;;;;;;;;;;;25.10;65.10;;;;;;10456081;28;19928;-23
2023/05/11 18:24:52;;;;;;;;;;;25.00;65.70;;;;;;10449097;28;20422;-24
2023/05/11 18:29:54;;;;;;;;;;;25.00;65.10;;;;;;10456034;28;20281;-24
2023/05/11 18:34:57;;;;;;;;;;;24.50;65.10;;;;;;10453221;28;20030;-25
2023/05/11 18:40:00;;;;;;;;;;;24.80;67.10;;;;;;10437883;28;20024;-25
2023/05/11 18:45:02;;;;;;;;;;;24.90;65.90;;;;;;10443681;28;20020;-25
2023/05/11 18:50:06;;;;;;;;;;;24.90;65.70;;;;;;10455313;28;19932;-25
2023/05/11 18:55:08;;;;;;;;;;;24.70;66.30;;;;;;10459514;28;20705;-33
2023/05/11 19:00:11;;;;;;;;;;;24.80;66.00;;;;;;10450729;28;19921;-21
2023/05/11 19:05:14;;;;;;;;;;;24.80;66.20;;;;;;10445753;28;19963;-25
2023/05/11 19:10:16;;;;;;;;;;;24.80;66.30;;;;;;10448317;28;20037;-25
2023/05/11 19:15:18;;;;;;;;;;;24.70;66.40;;;;;;10436192;28;20454;-25
2023/05/11 19:20:21;;;;;;;;;;;24.20;68.00;;;;;;10443047;28;20019;-23
2023/05/11 19:25:23;;;;;;;;;;;24.60;67.00;;;;;;10460792;28;19971;-24
2023/05/11 19:30:25;;;;;;;;;;;24.60;66.80;;;;;;10456957;28;19935;-25
2023/05/11 19:35:28;;;;;;;;;;;24.50;67.70;;;;;;10443384;28;19976;-24
2023/05/11 19:40:29;;;;;;;;;;;24.50;67.80;;;;;;10448353;28;20401;-25
2023/05/11 19:45:32;;;;;;;;;;;24.50;67.30;;;;;;10446286;28;19974;-24
2023/05/11 19:50:35;;;;;;;;;;;24.50;67.30;;;;;;10439745;28;20440;-25
2023/05/11 19:55:36;;;;;;;;;;;24.50;67.40;;;;;;10449984;28;19974;-25
2023/05/11 20:00:39;;;;;;;;;;;24.50;67.40;;;;;;10444429;28;20344;-24
2023/05/11 20:05:43;;;;;;;;;;;24.40;67.40;;;;;;10447710;28;20247;-24
2023/05/11 20:10:44;;;;;;;;;;;24.40;67.60;;;;;;10444971;28;19936;-24
2023/05/11 20:15:47;;;;;;;;;;;24.40;67.60;;;;;;10448689;28;20007;-25
2023/05/11 20:20:50;;;;;;;;;;;24.30;67.70;;;;;;10450755;28;19970;-24
2023/05/11 20:25:52;;;;;;;;;;;24.30;67.80;;;;;;10445548;28;19964;-25
2023/05/11 20:30:54;;;;;;;;;;;24.30;67.90;;;;;;10434750;28;19927;-26
2023/05/11 20:35:57;;;;;;;;;;;24.30;68.00;;;;;;10431739;28;20091;-25
2023/05/11 20:40:59;;;;;;;;;;;24.20;68.00;;;;;;10442724;28;19920;-23
2023/05/11 20:46:01;;;;;;;;;;;24.20;68.20;;;;;;10454215;28;19920;-24
2023/05/11 20:51:04;;;;;;;;;;;24.10;68.40;;;;;;10445961;28;19924;-24
2023/05/11 20:56:07;;;;;;;;;;;24.10;68.60;;;;;;10457648;28;19920;-24
2023/05/11 21:01:09;;;;;;;;;;;24.10;68.70;;;;;;10444539;28;19925;-23
2023/05/11 21:06:12;;;;;;;;;;;24.00;68.90;;;;;;10451679;28;19985;-24
2023/05/11 21:11:13;;;;;;;;;;;24.00;68.90;;;;;;10450115;28;19921;-24
2023/05/11 21:16:15;;;;;;;;;;;24.00;68.70;;;;;;10455318;28;19924;-24
2023/05/11 21:21:18;;;;;;;;;;;23.90;68.50;;;;;;10444974;28;19929;-24
2023/05/11 21:26:20;;;;;;;;;;;23.90;69.00;;;;;;10449490;28;21357;-24
2023/05/11 21:31:21;;;;;;;;;;;23.90;68.50;;;;;;10444807;28;19925;-24
2023/05/11 21:36:25;;;;;;;;;;;23.80;68.60;;;;;;10448024;28;19933;-24
2023/05/11 21:41:26;;;;;;;;;;;23.80;68.60;;;;;;10442051;28;19931;-23
2023/05/11 21:46:28;;;;;;;;;;;23.80;68.70;;;;;;10430805;28;20019;-24
2023/05/11 21:51:31;;;;;;;;;;;23.70;68.80;;;;;;10439044;28;19924;-23
2023/05/11 21:56:33;;;;;;;;;;;23.70;68.90;;;;;;10439979;28;20487;-24
2023/05/11 22:01:35;;;;;;;;;;;23.70;68.90;;;;;;10443650;28;19967;-23
2023/05/11 22:06:38;;;;;;;;;;;23.70;69.00;;;;;;10452726;28;19921;-25
2023/05/11 22:11:40;;;;;;;;;;;23.70;69.10;;;;;;10444982;28;20385;-23
2023/05/11 22:16:42;;;;;;;;;;;23.60;69.10;;;;;;10447286;28;20011;-25
2023/05/11 22:21:45;;;;;;;;;;;23.60;69.20;;;;;;10452456;28;19974;-25
2023/05/11 22:26:47;;;;;;;;;;;23.60;69.20;;;;;;10441957;28;20361;-23
2023/05/11 22:31:48;;;;;;;;;;;23.50;69.20;;;;;;10443197;28;19972;-24
2023/05/11 22:36:51;;;;;;;;;;;23.50;69.30;;;;;;10441399;28;19928;-24
2023/05/11 22:41:53;;;;;;;;;;;23.50;69.50;;;;;;10446364;28;19921;-25
2023/05/11 22:46:58;;;;;;;;;;;23.40;69.50;;;;;;10445772;28;19955;-25
2023/05/11 22:52:01;;;;;;;;;;;23.40;69.50;;;;;;10445277;28;20035;-23
2023/05/11 22:57:03;;;;;;;;;;;23.40;69.70;;;;;;10450588;28;19929;-25
2023/05/11 23:02:05;;;;;;;;;;;23.30;69.60;;;;;;10445357;28;20020;-24
2023/05/11 23:07:11;;;;;;;;;;;23.30;69.70;;;;;;10445506;28;19959;-25
2023/05/11 23:12:13;;;;;;;;;;;23.30;69.90;;;;;;10452539;28;19975;-26
2023/05/11 23:17:15;;;;;;;;;;;23.20;69.80;;;;;;10450206;28;20288;-24
2023/05/11 23:22:18;;;;;;;;;;;23.20;69.80;;;;;;10443122;28;19975;-25
2023/05/11 23:27:20;;;;;;;;;;;23.20;69.90;;;;;;10447636;28;19921;-24
2023/05/11 23:32:21;;;;;;;;;;;23.20;69.90;;;;;;10438937;28;19960;-23
2023/05/11 23:37:24;;;;;;;;;;;23.10;70.00;;;;;;10455826;28;19964;-24
2023/05/11 23:42:26;;;;;;;;;;;23.10;70.10;;;;;;10443534;28;19929;-24
2023/05/11 23:47:28;;;;;;;;;;;23.10;70.10;;;;;;10448155;28;19921;-24
2023/05/11 23:52:31;;;;;;;;;;;23.10;70.10;;;;;;10449175;28;19960;-24
2023/05/11 23:57:33;;;;;;;;;;;23.00;70.10;;;;;;10452286;28;19967;-23
